N1352Z KBDL-KEWR
Flight info
| Callsign | N1352Z |
|---|---|
| Flight time | 0h 56m |
| Altitude | 17000 |
| Route | VEERS IGN FLOSI FLOSI4 |
| Aircraft | SF50/L-SDGRWY/L |
Departure
| Time | 2025-12-31 20:34 |
|---|---|
| Airport | Bradley International Airport (KBDL) |
Arrival
| Time | 2025-12-31 21:31 |
|---|---|
| Airport | Newark Liberty International Airport (KEWR) |
| Time | Latitude | Longitude | Altitude | Speed | Heading |
|---|---|---|---|---|---|
| 2025-12-31 20:21 | 41.93502 | -72.68711 | 177 ft | 0 kts | 229° |
| 2025-12-31 20:28 | 41.93505 | -72.68718 | 177 ft | 0 kts | 38° |
| 2025-12-31 20:29 | 41.93565 | -72.68601 | 174 ft | 19 kts | 101° |
| 2025-12-31 20:30 | 41.93365 | -72.68336 | 171 ft | 20 kts | 135° |
| 2025-12-31 20:30 | 41.93190 | -72.68097 | 173 ft | 18 kts | 134° |
| 2025-12-31 20:31 | 41.93011 | -72.67852 | 171 ft | 18 kts | 134° |
| 2025-12-31 20:31 | 41.92884 | -72.67619 | 165 ft | 3 kts | 66° |
| 2025-12-31 20:32 | 41.92890 | -72.67608 | 164 ft | 8 kts | 46° |
| 2025-12-31 20:32 | 41.92969 | -72.67590 | 165 ft | 16 kts | 326° |
| 2025-12-31 20:33 | 41.93251 | -72.67974 | 172 ft | 88 kts | 314° |
| 2025-12-31 20:33 | 41.94307 | -72.69573 | 1031 ft | 134 kts | 279° |
| 2025-12-31 20:34 | 41.93729 | -72.72054 | 2614 ft | 148 kts | 264° |
| 2025-12-31 20:34 | 41.93678 | -72.74867 | 4315 ft | 152 kts | 265° |
| 2025-12-31 20:35 | 41.93550 | -72.77700 | 6031 ft | 153 kts | 265° |
| 2025-12-31 20:35 | 41.93412 | -72.80564 | 7655 ft | 153 kts | 265° |
| 2025-12-31 20:36 | 41.93282 | -72.83403 | 9302 ft | 152 kts | 265° |
| 2025-12-31 20:36 | 41.93218 | -72.84798 | 10068 ft | 151 kts | 265° |
| 2025-12-31 20:37 | 41.93018 | -72.89055 | 12061 ft | 154 kts | 265° |
| 2025-12-31 20:37 | 41.92879 | -72.91942 | 13400 ft | 156 kts | 265° |
| 2025-12-31 20:38 | 41.92739 | -72.94881 | 14563 ft | 159 kts | 265° |
| 2025-12-31 20:38 | 41.92590 | -72.97861 | 15657 ft | 162 kts | 265° |
| 2025-12-31 20:39 | 41.92442 | -73.00924 | 16714 ft | 166 kts | 265° |
| 2025-12-31 20:39 | 41.92292 | -73.04036 | 17743 ft | 169 kts | 265° |
| 2025-12-31 20:40 | 41.92137 | -73.07190 | 18659 ft | 171 kts | 265° |
| 2025-12-31 20:40 | 41.92059 | -73.08794 | 19071 ft | 173 kts | 265° |
| 2025-12-31 20:41 | 41.91819 | -73.13673 | 20280 ft | 176 kts | 265° |
| 2025-12-31 20:41 | 41.91655 | -73.16981 | 21096 ft | 177 kts | 265° |
| 2025-12-31 20:42 | 41.91490 | -73.20279 | 21970 ft | 176 kts | 265° |
| 2025-12-31 20:42 | 41.91327 | -73.23555 | 22820 ft | 175 kts | 265° |
| 2025-12-31 20:43 | 41.91162 | -73.26803 | 23639 ft | 174 kts | 265° |
| 2025-12-31 20:43 | 41.90518 | -73.29915 | 24329 ft | 175 kts | 247° |
| 2025-12-31 20:44 | 41.88581 | -73.34064 | 25397 ft | 175 kts | 244° |
| 2025-12-31 20:46 | 41.82962 | -73.46423 | 28634 ft | 170 kts | 244° |
| 2025-12-31 20:49 | 41.76848 | -73.59836 | 29819 ft | 219 kts | 244° |
| 2025-12-31 20:51 | 41.69859 | -73.75055 | 29819 ft | 253 kts | 244° |
| 2025-12-31 20:53 | 41.64131 | -73.92168 | 29822 ft | 252 kts | 256° |
| 2025-12-31 20:55 | 41.59906 | -74.09941 | 29809 ft | 249 kts | 257° |
| 2025-12-31 20:57 | 41.55654 | -74.27526 | 29808 ft | 253 kts | 252° |
| 2025-12-31 20:58 | 41.45283 | -74.37313 | 29814 ft | 288 kts | 208° |
| 2025-12-31 21:01 | 41.28672 | -74.44446 | 29823 ft | 291 kts | 210° |
| 2025-12-31 21:02 | 41.15724 | -74.50012 | 27023 ft | 284 kts | 210° |
| 2025-12-31 21:04 | 41.04148 | -74.54122 | 24686 ft | 301 kts | 195° |
| 2025-12-31 21:05 | 40.97860 | -74.54642 | 23486 ft | 302 kts | 195° |
| 2025-12-31 21:05 | 40.93674 | -74.55051 | 22595 ft | 304 kts | 195° |
| 2025-12-31 21:06 | 40.89426 | -74.55445 | 21784 ft | 308 kts | 195° |
| 2025-12-31 21:06 | 40.87278 | -74.55641 | 21363 ft | 310 kts | 195° |
| 2025-12-31 21:06 | 40.82981 | -74.56016 | 20579 ft | 312 kts | 193° |
| 2025-12-31 21:07 | 40.78576 | -74.55778 | 20578 ft | 316 kts | 187° |
| 2025-12-31 21:07 | 40.74292 | -74.55498 | 18834 ft | 304 kts | 189° |
| 2025-12-31 21:08 | 40.70052 | -74.55316 | 15109 ft | 306 kts | 187° |
| 2025-12-31 21:09 | 40.63887 | -74.54648 | 12926 ft | 311 kts | 168° |
| 2025-12-31 21:09 | 40.61078 | -74.50206 | 12463 ft | 336 kts | 102° |
| 2025-12-31 21:10 | 40.62321 | -74.44769 | 11636 ft | 304 kts | 36° |
| 2025-12-31 21:10 | 40.64041 | -74.43286 | 11268 ft | 294 kts | 20° |
| 2025-12-31 21:10 | 40.67574 | -74.40558 | 10477 ft | 296 kts | 26° |
| 2025-12-31 21:11 | 40.70866 | -74.37279 | 9692 ft | 295 kts | 30° |
| 2025-12-31 21:11 | 40.74104 | -74.34098 | 8864 ft | 290 kts | 29° |
| 2025-12-31 21:12 | 40.77383 | -74.31049 | 8072 ft | 286 kts | 29° |
| 2025-12-31 21:13 | 40.82166 | -74.26533 | 6928 ft | 279 kts | 30° |
| 2025-12-31 21:13 | 40.83740 | -74.25043 | 6551 ft | 276 kts | 30° |
| 2025-12-31 21:13 | 40.86841 | -74.22103 | 5789 ft | 272 kts | 32° |
| 2025-12-31 21:14 | 40.88760 | -74.17941 | 5658 ft | 276 kts | 70° |
| 2025-12-31 21:14 | 40.88633 | -74.13236 | 4546 ft | 237 kts | 111° |
| 2025-12-31 21:15 | 40.86907 | -74.09863 | 3618 ft | 208 kts | 144° |
| 2025-12-31 21:15 | 40.84331 | -74.08125 | 3153 ft | 197 kts | 176° |
| 2025-12-31 21:16 | 40.81861 | -74.08371 | 2679 ft | 170 kts | 204° |
| 2025-12-31 21:16 | 40.80799 | -74.09008 | 2453 ft | 166 kts | 211° |
| 2025-12-31 21:17 | 40.77696 | -74.11047 | 1785 ft | 165 kts | 210° |
| 2025-12-31 21:18 | 40.74798 | -74.12889 | 1194 ft | 141 kts | 210° |
| 2025-12-31 21:18 | 40.73935 | -74.13439 | 976 ft | 136 kts | 210° |
| 2025-12-31 21:18 | 40.72372 | -74.14444 | 608 ft | 110 kts | 211° |
| 2025-12-31 21:19 | 40.71099 | -74.15294 | 414 ft | 99 kts | 210° |
| 2025-12-31 21:19 | 40.69834 | -74.16006 | 1180 ft | 89 kts | 208° |
| 2025-12-31 21:20 | 40.68652 | -74.16595 | 1808 ft | 92 kts | 213° |
| 2025-12-31 21:21 | 40.66968 | -74.17561 | 2854 ft | 92 kts | 209° |
| 2025-12-31 21:21 | 40.66458 | -74.17917 | 3169 ft | 88 kts | 233° |
| 2025-12-31 21:21 | 40.65934 | -74.19471 | 3591 ft | 104 kts | 263° |
| 2025-12-31 21:22 | 40.66456 | -74.21548 | 3690 ft | 134 kts | 326° |
| 2025-12-31 21:22 | 40.68307 | -74.21956 | 3680 ft | 147 kts | 356° |
| 2025-12-31 21:23 | 40.70342 | -74.20992 | 3691 ft | 159 kts | 16° |
| 2025-12-31 21:23 | 40.72351 | -74.19847 | 3691 ft | 157 kts | 16° |
| 2025-12-31 21:24 | 40.74354 | -74.18707 | 3689 ft | 156 kts | 16° |
| 2025-12-31 21:24 | 40.75342 | -74.18101 | 3689 ft | 157 kts | 18° |
| 2025-12-31 21:25 | 40.78289 | -74.16298 | 2891 ft | 156 kts | 18° |
| 2025-12-31 21:25 | 40.80279 | -74.15136 | 2330 ft | 156 kts | 18° |
| 2025-12-31 21:26 | 40.81924 | -74.13413 | 1755 ft | 161 kts | 79° |
| 2025-12-31 21:26 | 40.80801 | -74.11676 | 1462 ft | 127 kts | 186° |
| 2025-12-31 21:27 | 40.78695 | -74.11686 | 1749 ft | 176 kts | 180° |
| 2025-12-31 21:27 | 40.76605 | -74.11552 | 1577 ft | 113 kts | 202° |
| 2025-12-31 21:28 | 40.75193 | -74.12492 | 1420 ft | 129 kts | 212° |
| 2025-12-31 21:28 | 40.74430 | -74.13046 | 1267 ft | 119 kts | 214° |
| 2025-12-31 21:29 | 40.72213 | -74.14632 | 595 ft | 134 kts | 210° |
| 2025-12-31 21:29 | 40.70613 | -74.15619 | 256 ft | 111 kts | 206° |
| 2025-12-31 21:30 | 40.69358 | -74.16408 | 19 ft | 0 kts | 205° |